createdAt,value
2022-09-15T00:00:30.107Z,57.30
2022-09-15T00:02:56.739Z,57.32
2022-09-15T00:05:23.398Z,57.33
2022-09-15T00:07:49.957Z,57.50
2022-09-15T00:10:17.406Z,57.44
2022-09-15T00:12:44.019Z,57.33
2022-09-15T00:15:14.848Z,57.27
2022-09-15T00:17:43.039Z,57.35
2022-09-15T00:20:10.915Z,57.53
2022-09-15T00:22:37.998Z,57.56
2022-09-15T00:25:05.529Z,57.49
2022-09-15T00:27:33.267Z,57.62
2022-09-15T00:29:59.955Z,57.54
2022-09-15T00:32:26.440Z,57.57
2022-09-15T00:34:53.463Z,57.67
2022-09-15T00:37:20.517Z,57.55
2022-09-15T00:39:47.277Z,57.45
2022-09-15T00:42:19.291Z,57.64
2022-09-15T00:44:54.984Z,57.49
2022-09-15T00:47:27.263Z,57.51
2022-09-15T00:50:01.232Z,57.73
2022-09-15T00:52:39.110Z,57.56
2022-09-15T00:55:28.315Z,57.61
2022-09-15T00:58:09.752Z,57.66
2022-09-15T01:00:37.877Z,57.72
2022-09-15T01:03:04.520Z,57.81
2022-09-15T01:05:36.824Z,57.58
2022-09-15T01:08:07.231Z,57.58
2022-09-15T01:10:37.237Z,57.87
2022-09-15T01:13:09.480Z,57.92
2022-09-15T01:15:58.232Z,57.90
2022-09-15T01:18:33.176Z,57.88
2022-09-15T01:21:25.963Z,58.01
2022-09-15T01:23:52.575Z,57.79
2022-09-15T01:26:52.607Z,57.69
2022-09-15T01:29:48.935Z,57.90
2022-09-15T01:33:02.843Z,57.84
2022-09-15T01:35:54.303Z,57.86
2022-09-15T01:38:28.482Z,57.86
2022-09-15T01:41:09.072Z,58.00
2022-09-15T01:43:55.176Z,58.02
2022-09-15T01:46:26.225Z,58.13
2022-09-15T01:48:55.150Z,57.92
2022-09-15T01:51:24.112Z,57.97
2022-09-15T01:53:53.605Z,58.06
2022-09-15T01:56:20.327Z,58.19
2022-09-15T01:58:50.719Z,58.10
2022-09-15T02:01:26.514Z,58.00
2022-09-15T02:03:58.423Z,58.28
2022-09-15T02:06:58.411Z,58.14
2022-09-15T02:09:33.397Z,58.12
2022-09-15T02:12:20.351Z,57.86
2022-09-15T02:14:52.668Z,57.94
2022-09-15T02:17:22.014Z,57.94
2022-09-15T02:19:53.768Z,57.85
2022-09-15T02:22:27.065Z,57.96
2022-09-15T02:24:59.836Z,57.92
2022-09-15T02:27:30.010Z,57.95
2022-09-15T02:30:03.054Z,58.06
2022-09-15T02:32:33.300Z,58.09
2022-09-15T02:35:06.846Z,57.75
2022-09-15T02:37:36.558Z,57.90
2022-09-15T02:40:04.638Z,57.97
2022-09-15T02:42:32.654Z,57.99
2022-09-15T02:45:00.702Z,58.15
2022-09-15T02:47:28.504Z,57.81
2022-09-15T02:49:55.524Z,57.89
2022-09-15T02:52:22.205Z,57.58
2022-09-15T02:54:48.984Z,57.73
2022-09-15T02:57:16.420Z,57.72
2022-09-15T03:00:01.838Z,57.88
2022-09-15T03:02:28.895Z,57.89
2022-09-15T03:04:55.531Z,57.76
2022-09-15T03:07:22.190Z,57.91
2022-09-15T03:09:48.670Z,57.74
2022-09-15T03:12:15.871Z,57.61
2022-09-15T03:14:42.961Z,57.68
2022-09-15T03:17:09.772Z,57.83
2022-09-15T03:19:36.314Z,58.00
2022-09-15T03:22:03.187Z,58.09
2022-09-15T03:24:29.721Z,57.96
2022-09-15T03:26:56.807Z,57.76
2022-09-15T03:29:23.391Z,58.26
2022-09-15T03:31:50.015Z,58.17
2022-09-15T03:34:16.661Z,57.98
2022-09-15T03:36:43.368Z,58.29
2022-09-15T03:39:12.025Z,58.19
2022-09-15T03:41:38.611Z,58.04
2022-09-15T03:44:05.240Z,58.02
2022-09-15T03:46:31.866Z,57.99
2022-09-15T03:48:58.455Z,58.19
2022-09-15T03:51:25.473Z,58.16
2022-09-15T03:53:52.116Z,58.33
2022-09-15T03:56:28.116Z,58.46
2022-09-15T03:58:54.723Z,58.30
2022-09-15T04:01:21.888Z,58.22
2022-09-15T04:03:51.410Z,58.44
2022-09-15T04:06:20.115Z,58.55
2022-09-15T04:08:47.600Z,58.43
2022-09-15T04:11:14.572Z,58.27
2022-09-15T04:13:42.004Z,58.56
2022-09-15T04:16:17.365Z,58.65
2022-09-15T04:18:44.287Z,58.84
2022-09-15T04:21:13.565Z,58.79
2022-09-15T04:23:41.119Z,58.54
2022-09-15T04:26:11.925Z,58.72
2022-09-15T04:28:39.671Z,58.69
2022-09-15T04:31:09.057Z,58.57
2022-09-15T04:33:38.336Z,58.56
2022-09-15T04:36:07.998Z,58.62
2022-09-15T04:38:35.804Z,58.90
2022-09-15T04:41:03.176Z,58.71
2022-09-15T04:43:30.151Z,58.54
2022-09-15T04:45:56.619Z,58.71
2022-09-15T04:48:23.482Z,58.54
2022-09-15T04:50:50.454Z,58.29
2022-09-15T04:53:17.157Z,58.25
2022-09-15T04:55:44.612Z,58.46
2022-09-15T04:58:11.941Z,58.15
2022-09-15T05:00:42.918Z,58.26
2022-09-15T05:03:14.162Z,58.24
2022-09-15T05:05:41.621Z,58.20
2022-09-15T05:08:08.308Z,58.08
2022-09-15T05:10:35.396Z,58.33
2022-09-15T05:13:01.910Z,58.30
2022-09-15T05:15:28.456Z,58.10
2022-09-15T05:17:55.028Z,58.37
2022-09-15T05:20:22.423Z,58.32
2022-09-15T05:22:48.915Z,58.33
2022-09-15T05:25:15.589Z,58.43
2022-09-15T05:27:42.324Z,58.57
2022-09-15T05:30:35.848Z,58.65
2022-09-15T05:32:56.869Z,58.48
2022-09-15T05:35:26.344Z,58.34
2022-09-15T05:37:52.860Z,58.70
2022-09-15T05:40:21.806Z,58.60
2022-09-15T05:42:48.421Z,58.90
2022-09-15T05:47:41.553Z,58.85
2022-09-15T05:50:08.435Z,58.92
2022-09-15T05:52:35.686Z,58.77
2022-09-15T05:55:02.257Z,58.71
2022-09-15T05:57:29.692Z,58.79
2022-09-15T05:59:56.200Z,58.69
2022-09-15T06:02:22.959Z,58.80
2022-09-15T06:04:49.587Z,58.65
2022-09-15T06:07:16.555Z,58.50
2022-09-15T06:09:43.571Z,58.61
2022-09-15T06:12:10.200Z,58.33
2022-09-15T06:14:36.715Z,58.41
2022-09-15T06:17:03.328Z,58.35
2022-09-15T06:19:29.817Z,58.42
2022-09-15T06:21:56.408Z,58.24
2022-09-15T06:24:23.185Z,58.18
2022-09-15T06:26:49.764Z,58.18
2022-09-15T06:29:16.270Z,58.25
2022-09-15T06:31:43.087Z,58.20
2022-09-15T06:34:11.233Z,58.23
2022-09-15T06:36:38.946Z,58.23
2022-09-15T06:39:05.614Z,58.20
2022-09-15T06:41:58.409Z,57.87
2022-09-15T06:44:22.047Z,57.57
2022-09-15T06:46:50.275Z,57.66
2022-09-15T06:49:17.248Z,57.76
2022-09-15T06:51:43.797Z,57.44
2022-09-15T06:54:10.495Z,57.38
2022-09-15T06:56:38.357Z,57.52
2022-09-15T06:59:05.186Z,57.43
2022-09-15T07:01:35.417Z,57.68
2022-09-15T07:04:05.558Z,57.70
2022-09-15T07:06:33.581Z,57.88
2022-09-15T07:09:01.665Z,57.85
2022-09-15T07:11:29.053Z,57.90
2022-09-15T07:13:55.568Z,57.82
2022-09-15T07:16:22.751Z,57.85
2022-09-15T07:18:55.474Z,57.90
2022-09-15T07:21:22.157Z,57.84
2022-09-15T07:23:50.023Z,57.83
2022-09-15T07:26:20.708Z,57.80
2022-09-15T07:28:50.309Z,57.72
2022-09-15T07:31:20.882Z,57.55
2022-09-15T07:33:47.674Z,57.55
2022-09-15T07:36:15.150Z,57.04
2022-09-15T07:38:45.172Z,56.81
2022-09-15T07:41:20.793Z,56.70
2022-09-15T07:43:52.518Z,56.39
2022-09-15T07:46:21.759Z,56.28
2022-09-15T07:48:50.564Z,56.15
2022-09-15T07:51:18.704Z,56.00
2022-09-15T07:53:47.131Z,55.78
2022-09-15T07:56:14.578Z,55.60
2022-09-15T07:58:41.173Z,55.50
2022-09-15T08:01:11.531Z,55.27
2022-09-15T08:03:48.789Z,54.97
2022-09-15T08:06:18.156Z,55.01
2022-09-15T08:08:44.843Z,54.93
2022-09-15T08:11:18.488Z,54.98
2022-09-15T08:13:49.965Z,54.87
2022-09-15T08:16:22.279Z,54.90
2022-09-15T08:18:49.593Z,54.68
2022-09-15T08:21:22.295Z,54.62
2022-09-15T08:23:57.368Z,54.25
2022-09-15T08:28:50.624Z,54.12
2022-09-15T08:31:17.762Z,53.99
2022-09-15T08:33:51.907Z,53.99
2022-09-15T08:36:19.058Z,53.82
2022-09-15T08:38:45.920Z,53.89
2022-09-15T08:41:18.496Z,53.53
2022-09-15T08:44:17.681Z,53.49
2022-09-15T08:46:53.207Z,53.41
2022-09-15T08:49:50.090Z,53.25
2022-09-15T08:52:24.383Z,53.12
2022-09-15T08:54:57.135Z,53.01
2022-09-15T08:57:25.962Z,53.21
2022-09-15T08:59:55.033Z,53.02
2022-09-15T09:02:27.658Z,52.91
2022-09-15T09:04:59.030Z,52.76
2022-09-15T09:07:34.595Z,52.57
2022-09-15T09:10:19.006Z,52.43
2022-09-15T09:12:53.925Z,52.34
2022-09-15T09:15:56.789Z,52.33
2022-09-15T09:18:26.221Z,52.24
2022-09-15T09:21:11.486Z,52.19
2022-09-15T09:23:54.458Z,52.01
2022-09-15T09:26:21.593Z,51.90
2022-09-15T09:28:55.452Z,52.06
2022-09-15T09:31:24.683Z,52.14
2022-09-15T09:34:15.313Z,52.17
2022-09-15T09:36:42.801Z,52.28
2022-09-15T09:39:15.098Z,52.05
2022-09-15T09:41:42.530Z,52.19
2022-09-15T09:44:14.429Z,51.95
2022-09-15T09:46:42.263Z,51.77
2022-09-15T09:49:22.980Z,51.80
2022-09-15T09:51:55.217Z,51.86
2022-09-15T09:54:24.912Z,52.16
2022-09-15T09:56:53.597Z,51.57
2022-09-15T09:59:38.656Z,51.61
2022-09-15T10:02:10.461Z,51.72
2022-09-15T10:04:37.472Z,51.57
2022-09-15T10:07:05.572Z,51.45
2022-09-15T10:09:33.486Z,51.66
2022-09-15T10:12:05.077Z,51.49
2022-09-15T10:14:35.506Z,51.40
2022-09-15T10:17:07.897Z,51.34
2022-09-15T10:19:58.199Z,51.35
2022-09-15T10:22:37.425Z,51.21
2022-09-15T10:25:35.675Z,51.28
2022-09-15T10:28:15.216Z,51.30
2022-09-15T10:31:07.981Z,51.40
2022-09-15T10:33:37.327Z,51.22
2022-09-15T10:36:04.093Z,51.21
2022-09-15T10:38:58.075Z,51.08
2022-09-15T10:41:28.614Z,51.12
2022-09-15T10:44:13.766Z,51.23
2022-09-15T10:47:17.694Z,51.09
2022-09-15T10:49:53.189Z,50.98
2022-09-15T10:52:43.944Z,50.96
2022-09-15T10:55:48.971Z,51.11
2022-09-15T10:58:41.078Z,50.89
2022-09-15T11:01:43.224Z,50.95
2022-09-15T11:04:30.099Z,50.92
2022-09-15T11:07:14.131Z,50.86
2022-09-15T11:10:13.080Z,51.02
2022-09-15T11:12:45.908Z,50.84
2022-09-15T11:15:35.022Z,50.89
2022-09-15T11:18:19.664Z,50.75
2022-09-15T11:21:11.122Z,50.95
2022-09-15T11:23:44.228Z,50.76
2022-09-15T11:26:22.217Z,51.04
2022-09-15T11:29:01.350Z,50.88
2022-09-15T11:31:34.222Z,51.03
2022-09-15T11:34:19.444Z,50.94
2022-09-15T11:37:12.060Z,50.94
2022-09-15T11:39:51.917Z,50.78
2022-09-15T11:42:33.266Z,50.64
2022-09-15T11:45:01.459Z,50.90
2022-09-15T11:47:27.913Z,50.80
2022-09-15T11:50:18.250Z,50.65
2022-09-15T11:53:29.897Z,50.70
2022-09-15T11:55:59.472Z,50.77
2022-09-15T11:58:41.060Z,50.57
2022-09-15T12:01:10.571Z,50.49
2022-09-15T12:03:52.822Z,50.43
2022-09-15T12:06:45.563Z,50.42
2022-09-15T12:09:15.881Z,50.63
2022-09-15T12:11:52.974Z,50.55
2022-09-15T12:14:43.724Z,51.15
2022-09-15T12:17:23.077Z,50.97
2022-09-15T12:20:02.179Z,51.37
2022-09-15T12:22:35.716Z,51.44
2022-09-15T12:25:24.411Z,51.68
2022-09-15T12:28:21.946Z,51.74
2022-09-15T12:30:50.681Z,52.05
2022-09-15T12:33:42.121Z,52.42
2022-09-15T12:36:39.566Z,52.56
2022-09-15T12:39:20.603Z,52.76
2022-09-15T12:42:05.016Z,53.01
2022-09-15T12:44:37.058Z,53.03
2022-09-15T12:47:07.581Z,53.37
2022-09-15T12:49:45.884Z,53.27
2022-09-15T12:52:13.445Z,53.37
2022-09-15T12:54:42.501Z,53.69
2022-09-15T12:57:35.683Z,53.47
2022-09-15T13:02:46.021Z,53.94
2022-09-15T13:05:14.210Z,53.89
2022-09-15T13:07:56.987Z,53.89
2022-09-15T13:10:33.362Z,54.18
2022-09-15T13:13:15.996Z,53.79
2022-09-15T13:15:46.469Z,53.88
2022-09-15T13:18:15.906Z,54.20
2022-09-15T13:20:56.167Z,54.11
2022-09-15T13:23:25.537Z,53.93
2022-09-15T13:25:56.417Z,54.25
2022-09-15T13:28:24.633Z,54.17
2022-09-15T13:31:15.678Z,54.20
2022-09-15T13:39:59.856Z,54.62
2022-09-15T13:42:46.005Z,54.32
2022-09-15T13:45:25.339Z,54.35
2022-09-15T13:48:03.969Z,54.37
2022-09-15T13:50:42.930Z,54.40
2022-09-15T13:53:37.829Z,54.19
2022-09-15T13:56:08.955Z,54.49
2022-09-15T14:01:23.662Z,54.46
2022-09-15T14:04:21.500Z,54.32
2022-09-15T14:06:51.916Z,54.26
2022-09-15T14:09:23.455Z,53.50
2022-09-15T14:11:53.376Z,52.48
2022-09-15T14:14:41.120Z,51.27
2022-09-15T14:17:24.406Z,50.78
2022-09-15T14:19:59.862Z,50.51
2022-09-15T14:22:34.090Z,50.65
2022-09-15T14:25:06.278Z,50.27
2022-09-15T14:27:34.651Z,50.25
2022-09-15T14:30:08.220Z,50.37
2022-09-15T14:32:39.233Z,50.38
2022-09-15T14:35:09.229Z,50.38
2022-09-15T14:37:35.843Z,50.48
2022-09-15T14:40:19.367Z,50.57
2022-09-15T14:42:46.028Z,50.62
2022-09-15T14:48:07.258Z,50.79
2022-09-15T14:50:34.120Z,50.59
2022-09-15T14:53:11.630Z,50.53
2022-09-15T14:56:08.051Z,50.50
2022-09-15T14:58:58.186Z,50.50
2022-09-15T15:01:28.022Z,50.28
2022-09-15T15:04:12.843Z,50.13
2022-09-15T15:06:51.663Z,50.34
2022-09-15T15:09:21.522Z,50.23
2022-09-15T15:11:56.822Z,50.11
2022-09-15T15:14:23.890Z,50.27
2022-09-15T15:17:02.359Z,50.12
2022-09-15T15:19:39.741Z,50.50
2022-09-15T15:22:26.882Z,50.73
2022-09-15T15:27:26.500Z,51.89
2022-09-15T15:29:53.144Z,52.81
2022-09-15T15:32:25.056Z,53.68
2022-09-15T15:34:59.759Z,53.90
2022-09-15T15:37:27.624Z,54.53
2022-09-15T15:40:00.044Z,54.71
2022-09-15T15:42:29.023Z,55.16
2022-09-15T15:45:04.437Z,55.11
2022-09-15T15:47:35.173Z,55.50
2022-09-15T15:50:19.048Z,55.72
2022-09-15T15:52:45.707Z,55.89
2022-09-15T15:55:17.399Z,56.15
2022-09-15T15:57:44.752Z,56.52
2022-09-15T16:00:40.761Z,56.70
2022-09-15T16:03:08.764Z,56.89
2022-09-15T16:05:36.026Z,56.84
2022-09-15T16:08:25.919Z,57.15
2022-09-15T16:10:54.641Z,57.31
2022-09-15T16:13:22.314Z,57.21
2022-09-15T16:15:49.498Z,57.43
2022-09-15T16:18:16.782Z,57.49
2022-09-15T16:20:43.748Z,57.53
2022-09-15T16:23:18.471Z,57.80
2022-09-15T16:25:54.579Z,57.97
2022-09-15T16:28:21.756Z,57.76
2022-09-15T16:30:48.311Z,58.22
2022-09-15T16:33:16.275Z,58.24
2022-09-15T16:35:51.055Z,58.04
2022-09-15T16:38:20.041Z,57.95
2022-09-15T16:40:47.834Z,57.77
2022-09-15T16:43:16.871Z,57.30
2022-09-15T16:45:44.376Z,57.16
2022-09-15T16:51:02.175Z,56.86
2022-09-15T16:53:30.973Z,56.42
2022-09-15T16:55:57.589Z,55.84
2022-09-15T16:58:24.172Z,55.53
2022-09-15T17:00:52.583Z,55.48
2022-09-15T17:03:22.990Z,55.66
2022-09-15T17:06:00.815Z,55.78
2022-09-15T17:08:32.881Z,55.96
2022-09-15T17:11:02.020Z,55.90
2022-09-15T17:13:32.695Z,55.97
2022-09-15T17:16:00.540Z,55.98
2022-09-15T17:18:28.232Z,56.01
2022-09-15T17:20:56.012Z,56.02
2022-09-15T17:23:27.695Z,55.64
2022-09-15T17:25:58.427Z,55.57
2022-09-15T17:28:27.782Z,55.49
2022-09-15T17:31:05.478Z,55.37
2022-09-15T17:36:00.304Z,55.47
2022-09-15T17:38:27.167Z,55.27
2022-09-15T17:40:59.998Z,55.28
2022-09-15T17:43:28.973Z,55.20
2022-09-15T17:45:56.333Z,55.25
2022-09-15T17:48:23.821Z,54.98
2022-09-15T17:50:50.941Z,54.95
2022-09-15T17:53:18.575Z,54.71
2022-09-15T17:55:45.094Z,54.78
2022-09-15T17:58:12.910Z,54.66
2022-09-15T18:00:42.402Z,54.44
2022-09-15T18:03:18.086Z,54.19
2022-09-15T18:05:44.797Z,53.95
2022-09-15T18:08:12.491Z,54.40
2022-09-15T18:10:39.468Z,54.21
2022-09-15T18:13:06.999Z,54.72
2022-09-15T18:15:35.369Z,54.78
2022-09-15T18:18:08.410Z,54.86
2022-09-15T18:20:36.741Z,54.94
2022-09-15T18:25:25.498Z,54.60
2022-09-15T18:27:52.119Z,54.53
2022-09-15T18:30:20.346Z,54.34
2022-09-15T18:32:47.784Z,54.42
2022-09-15T18:35:24.966Z,54.32
2022-09-15T18:37:58.078Z,54.10
2022-09-15T18:40:25.425Z,54.19
2022-09-15T18:42:52.377Z,54.11
2022-09-15T18:45:20.471Z,54.14
2022-09-15T18:47:48.757Z,54.41
2022-09-15T18:50:17.586Z,54.20
2022-09-15T18:52:44.717Z,53.93
2022-09-15T18:55:16.620Z,53.83
2022-09-15T18:57:43.569Z,53.90
2022-09-15T19:00:19.407Z,53.99
2022-09-15T19:02:47.166Z,53.72
2022-09-15T19:05:17.773Z,53.69
2022-09-15T19:07:45.320Z,53.80
2022-09-15T19:10:14.304Z,53.49
2022-09-15T19:12:41.124Z,53.54
2022-09-15T19:15:11.327Z,53.34
2022-09-15T19:17:39.643Z,53.40
2022-09-15T19:20:09.894Z,53.61
2022-09-15T19:22:37.053Z,53.45
2022-09-15T19:25:04.721Z,53.67
2022-09-15T19:27:31.306Z,53.46
2022-09-15T19:29:59.921Z,53.35
2022-09-15T19:32:26.772Z,53.41
2022-09-15T19:34:53.592Z,53.50
2022-09-15T19:37:21.631Z,52.97
2022-09-15T19:39:49.404Z,53.14
2022-09-15T19:46:46.219Z,53.05
2022-09-15T19:49:13.041Z,52.75
2022-09-15T19:51:39.786Z,52.48
2022-09-15T19:54:07.161Z,52.58
2022-09-15T19:56:35.168Z,52.92
2022-09-15T19:59:04.147Z,52.75
2022-09-15T20:01:32.579Z,52.99
2022-09-15T20:04:01.883Z,53.02
2022-09-15T20:06:32.511Z,52.83
2022-09-15T20:09:00.173Z,52.80
2022-09-15T20:11:27.369Z,52.98
2022-09-15T20:13:54.701Z,53.05
2022-09-15T20:16:23.956Z,53.09
2022-09-15T20:18:53.896Z,53.02
2022-09-15T20:21:48.642Z,53.21
2022-09-15T20:24:15.222Z,53.00
2022-09-15T20:26:41.964Z,53.04
2022-09-15T20:29:10.395Z,53.06
2022-09-15T20:31:37.178Z,53.19
2022-09-15T20:34:03.894Z,53.10
2022-09-15T20:36:35.995Z,53.31
2022-09-15T20:39:06.219Z,53.38
2022-09-15T20:41:32.898Z,53.36
2022-09-15T20:44:00.153Z,53.05
2022-09-15T20:46:29.256Z,53.31
2022-09-15T20:48:56.069Z,53.16
2022-09-15T20:51:29.417Z,53.06
2022-09-15T20:53:57.780Z,53.02
2022-09-15T20:56:27.116Z,53.22
2022-09-15T20:58:55.732Z,53.33
2022-09-15T21:01:34.098Z,52.95
2022-09-15T21:04:01.079Z,53.04
2022-09-15T21:08:13.424Z,53.04
2022-09-15T21:10:44.536Z,52.77
2022-09-15T21:13:11.616Z,52.97
2022-09-15T21:15:38.191Z,53.02
2022-09-15T21:18:04.958Z,52.84
2022-09-15T21:20:31.619Z,52.97
2022-09-15T21:22:58.285Z,52.62
2022-09-15T21:25:24.937Z,52.75
2022-09-15T21:27:52.280Z,52.50
2022-09-15T21:30:19.193Z,52.67
2022-09-15T21:32:46.098Z,52.59
2022-09-15T21:35:12.724Z,52.61
2022-09-15T21:37:39.400Z,52.61
2022-09-15T21:40:06.622Z,53.19
2022-09-15T21:42:33.272Z,53.07
2022-09-15T21:45:00.337Z,53.29
2022-09-15T21:47:27.419Z,53.33
2022-09-15T21:49:54.080Z,53.06
2022-09-15T21:52:21.646Z,53.27
2022-09-15T21:54:48.285Z,53.03
2022-09-15T21:57:15.327Z,52.88
2022-09-15T21:59:42.741Z,52.89
2022-09-15T22:02:10.900Z,52.76
2022-09-15T22:04:38.262Z,52.61
2022-09-15T22:07:06.060Z,52.62
2022-09-15T22:09:33.482Z,52.83
2022-09-15T22:12:00.166Z,52.72
2022-09-15T22:16:53.447Z,52.49
2022-09-15T22:19:20.114Z,52.72
2022-09-15T22:21:46.752Z,52.67
2022-09-15T22:24:13.916Z,52.64
2022-09-15T22:26:42.457Z,52.53
2022-09-15T22:29:09.458Z,52.44
2022-09-15T22:31:36.700Z,52.40
2022-09-15T22:34:03.717Z,52.37
2022-09-15T22:36:31.396Z,52.45
2022-09-15T22:39:05.998Z,52.30
2022-09-15T22:41:37.960Z,52.36
2022-09-15T22:44:06.704Z,52.30
2022-09-15T22:46:33.384Z,52.34
2022-09-15T22:49:00.201Z,52.30
2022-09-15T22:51:26.943Z,52.29
2022-09-15T22:53:54.750Z,52.24
2022-09-15T22:56:21.487Z,52.04
2022-09-15T22:58:49.504Z,52.16
2022-09-15T23:01:21.530Z,52.17
2022-09-15T23:03:56.573Z,52.31
2022-09-15T23:06:25.374Z,52.17
2022-09-15T23:08:57.025Z,52.02
2022-09-15T23:11:24.724Z,52.07
2022-09-15T23:13:52.425Z,52.03
2022-09-15T23:16:19.825Z,51.75
2022-09-15T23:18:50.999Z,51.95
2022-09-15T23:21:18.220Z,51.72
2022-09-15T23:23:46.640Z,51.82
2022-09-15T23:26:14.138Z,51.86
2022-09-15T23:28:41.599Z,51.63
2022-09-15T23:31:10.210Z,51.61
2022-09-15T23:33:36.772Z,51.73
2022-09-15T23:36:05.759Z,51.67
2022-09-15T23:38:35.333Z,51.57
2022-09-15T23:41:02.028Z,51.60
2022-09-15T23:43:28.671Z,51.53
2022-09-15T23:45:55.339Z,51.44
2022-09-15T23:48:23.313Z,51.43
2022-09-15T23:50:49.994Z,51.19
2022-09-15T23:53:16.701Z,51.44
2022-09-15T23:55:44.843Z,51.54
2022-09-15T23:58:12.142Z,51.20
